Time,TemperatureF,DewpointF,PressureIn,WindDirection,WindDirectionDegrees,WindSpeedMPH,WindSpeedGustMPH,Humidity,HourlyPrecipIn,Conditions,Clouds,dailyrainin,SoftwareType,DateUTC
2013-03-25 00:00:00,71.2,69.1,29.75,WSW,250,5.0,5.0,93,0.00,,OVC033,0.00,VWS V14.01,2013-03-25 04:00:00,
2013-03-25 00:05:00,71.2,69.1,29.75,WSW,250,3.0,7.0,93,0.00,,OVC027,0.00,VWS V14.01,2013-03-25 04:05:00,
2013-03-25 00:10:00,71.4,69.3,29.76,SW,225,3.0,7.0,93,0.00,,OVC027,0.00,VWS V14.01,2013-03-25 04:10:00,
2013-03-25 00:15:00,71.5,69.4,29.76,SSW,205,6.0,8.0,93,0.00,,OVC027,0.00,VWS V14.01,2013-03-25 04:15:00,
2013-03-25 00:20:00,71.5,69.4,29.75,SW,234,3.0,8.0,93,0.00,,OVC027,0.00,VWS V14.01,2013-03-25 04:20:00,
2013-03-25 00:25:00,71.6,69.5,29.75,South,183,5.0,9.0,93,0.00,,OVC027,0.00,VWS V14.01,2013-03-25 04:25:00,
2013-03-25 00:30:00,71.7,69.6,29.75,WSW,239,4.0,11.0,93,0.00,,OVC027,0.00,VWS V14.01,2013-03-25 04:30:00,
2013-03-25 00:35:00,71.7,69.9,29.75,SW,232,4.0,11.0,94,0.00,,OVC027,0.00,VWS V14.01,2013-03-25 04:35:00,
2013-03-25 00:40:00,71.8,70.0,29.74,WSW,244,3.0,11.0,94,0.00,,OVC027,0.00,VWS V14.01,2013-03-25 04:40:00,
2013-03-25 00:45:00,71.8,69.7,29.75,SW,219,4.0,11.0,93,0.00,,OVC027,0.00,VWS V14.01,2013-03-25 04:45:00,
2013-03-25 00:50:00,71.8,69.7,29.74,WSW,241,3.0,11.0,93,0.00,,OVC027,0.00,VWS V14.01,2013-03-25 04:50:00,
2013-03-25 00:55:00,71.8,69.7,29.75,West,267,4.0,11.0,93,0.00,,OVC027,0.00,VWS V14.01,2013-03-25 04:55:00,
2013-03-25 01:00:00,71.8,70.0,29.75,WSW,239,0.0,4.0,94,0.00,,OVC027,0.00,VWS V14.01,2013-03-25 05:00:00,
2013-03-25 01:05:00,71.8,69.7,29.75,South,178,3.0,7.0,93,0.00,,OVC023,0.00,VWS V14.01,2013-03-25 05:05:00,
2013-03-25 01:10:00,71.8,70.0,29.76,West,262,5.0,8.0,94,0.00,,OVC026,0.00,VWS V14.01,2013-03-25 05:10:00,
2013-03-25 01:15:00,71.8,70.0,29.75,WSW,247,4.0,8.0,94,0.00,,OVC026,0.00,VWS V14.01,2013-03-25 05:15:00,
2013-03-25 01:20:00,71.8,69.7,29.75,WSW,252,2.0,8.0,93,0.00,,OVC023,0.00,VWS V14.01,2013-03-25 05:20:00,
2013-03-25 01:25:00,71.8,70.0,29.75,WSW,237,4.0,8.0,94,0.00,,OVC023,0.00,VWS V14.01,2013-03-25 05:25:00,
2013-03-25 01:30:00,71.9,70.1,29.75,WNW,282,4.0,8.0,94,0.00,,OVC023,0.00,VWS V14.01,2013-03-25 05:30:00,
2013-03-25 01:35:00,71.8,70.0,29.75,WSW,250,3.0,8.0,94,0.00,,OVC023,0.00,VWS V14.01,2013-03-25 05:35:00,
2013-03-25 01:40:00,71.8,70.0,29.76,West,266,6.0,9.0,94,0.00,,OVC023,0.00,VWS V14.01,2013-03-25 05:40:00,
2013-03-25 01:45:00,71.7,69.9,29.76,WNW,291,3.0,9.0,94,0.00,,OVC023,0.00,VWS V14.01,2013-03-25 05:45:00,
2013-03-25 01:50:00,71.7,69.9,29.75,WSW,246,0.0,9.0,94,0.00,,OVC023,0.00,VWS V14.01,2013-03-25 05:50:00,
2013-03-25 01:55:00,71.7,69.9,29.75,WSW,255,2.0,9.0,94,0.00,,OVC023,0.00,VWS V14.01,2013-03-25 05:55:00,
2013-03-25 02:00:00,71.6,69.8,29.75,SW,236,2.0,4.0,94,0.00,,OVC023,0.00,VWS V14.01,2013-03-25 06:00:00,
2013-03-25 02:05:00,71.6,69.8,29.76,WSW,245,2.0,4.0,94,0.00,,OVC036,0.00,VWS V14.01,2013-03-25 06:05:00,
2013-03-25 02:10:00,71.6,69.8,29.75,WSW,240,2.0,6.0,94,0.00,,OVC036,0.00,VWS V14.01,2013-03-25 06:10:00,
2013-03-25 02:15:00,71.5,69.7,29.75,SW,223,0.0,6.0,94,0.00,,OVC036,0.00,VWS V14.01,2013-03-25 06:15:00,
2013-03-25 02:20:00,71.5,69.7,29.76,SW,228,3.0,6.0,94,0.00,,OVC036,0.00,VWS V14.01,2013-03-25 06:20:00,
2013-03-25 02:25:00,71.4,69.6,29.76,WSW,241,0.0,6.0,94,0.00,,OVC036,0.00,VWS V14.01,2013-03-25 06:25:00,
2013-03-25 02:30:00,71.4,69.6,29.76,WSW,257,4.0,6.0,94,0.00,,OVC038,0.00,VWS V14.01,2013-03-25 06:30:00,
2013-03-25 02:35:00,71.3,69.5,29.76,West,277,0.0,6.0,94,0.00,,OVC038,0.00,VWS V14.01,2013-03-25 06:35:00,
2013-03-25 02:40:00,71.2,69.4,29.75,WSW,238,4.0,6.0,94,0.00,,OVC038,0.00,VWS V14.01,2013-03-25 06:40:00,
2013-03-25 02:45:00,71.1,69.0,29.76,WSW,241,3.0,6.0,93,0.00,,OVC038,0.00,VWS V14.01,2013-03-25 06:45:00,
2013-03-25 02:50:00,71.1,69.3,29.75,SW,226,3.0,6.0,94,0.00,,BKN040,0.00,VWS V14.01,2013-03-25 06:50:00,
2013-03-25 02:55:00,71.0,69.2,29.75,SW,236,1.0,6.0,94,0.00,,BKN040,0.00,VWS V14.01,2013-03-25 06:55:00,
2013-03-25 03:00:00,70.9,68.8,29.75,SW,235,3.0,5.0,93,0.00,,BKN040,0.00,VWS V14.01,2013-03-25 07:00:00,
2013-03-25 03:05:00,70.9,68.8,29.75,SW,229,2.0,5.0,93,0.00,,OVC040,0.00,VWS V14.01,2013-03-25 07:05:00,
2013-03-25 03:10:00,70.8,68.7,29.75,WSW,257,0.0,6.0,93,0.00,,OVC040,0.00,VWS V14.01,2013-03-25 07:10:00,
2013-03-25 03:15:00,70.8,68.7,29.75,SW,229,0.0,6.0,93,0.00,,OVC040,0.00,VWS V14.01,2013-03-25 07:15:00,
2013-03-25 03:20:00,70.7,68.9,29.74,West,261,3.0,6.0,94,0.00,,OVC040,0.00,VWS V14.01,2013-03-25 07:20:00,
2013-03-25 03:25:00,70.6,68.5,29.74,SW,227,5.0,6.0,93,0.00,,OVC040,0.00,VWS V14.01,2013-03-25 07:25:00,
2013-03-25 03:30:00,70.5,68.4,29.75,SW,236,4.0,6.0,93,0.00,,OVC040,0.00,VWS V14.01,2013-03-25 07:30:00,
2013-03-25 03:35:00,70.5,68.4,29.74,WSW,246,2.0,6.0,93,0.00,,OVC040,0.00,VWS V14.01,2013-03-25 07:35:00,
2013-03-25 03:40:00,70.4,68.3,29.74,SW,232,1.0,6.0,93,0.00,,OVC040,0.00,VWS V14.01,2013-03-25 07:40:00,
2013-03-25 03:45:00,70.3,68.2,29.75,West,266,2.0,6.0,93,0.00,,OVC040,0.00,VWS V14.01,2013-03-25 07:45:00,
2013-03-25 03:50:00,70.1,68.0,29.75,WSW,251,1.0,6.0,93,0.00,,OVC040,0.00,VWS V14.01,2013-03-25 07:50:00,
2013-03-25 03:55:00,70.1,68.3,29.75,WSW,250,3.0,6.0,94,0.00,,OVC040,0.00,VWS V14.01,2013-03-25 07:55:00,
2013-03-25 04:00:00,70.0,68.2,29.74,WSW,258,3.0,6.0,94,0.00,,OVC040,0.00,VWS V14.01,2013-03-25 08:00:00,
2013-03-25 04:05:00,69.8,67.7,29.74,West,263,3.0,6.0,93,0.00,,CLR,0.00,VWS V14.01,2013-03-25 08:05:00,
2013-03-25 04:10:00,69.8,68.0,29.75,WSW,254,2.0,7.0,94,0.00,,CLR,0.00,VWS V14.01,2013-03-25 08:10:00,
2013-03-25 04:15:00,69.6,67.8,29.75,WSW,250,6.0,8.0,94,0.00,,CLR,0.00,VWS V14.01,2013-03-25 08:15:00,
2013-03-25 04:20:00,69.5,67.7,29.75,WSW,252,3.0,8.0,94,0.00,,CLR,0.00,VWS V14.01,2013-03-25 08:20:00,
2013-03-25 04:25:00,69.4,67.6,29.75,WSW,246,6.0,11.0,94,0.00,,CLR,0.00,VWS V14.01,2013-03-25 08:25:00,
2013-03-25 04:30:00,69.2,67.4,29.75,WNW,284,4.0,11.0,94,0.00,,CLR,0.00,VWS V14.01,2013-03-25 08:30:00,
2013-03-25 04:35:00,69.0,67.2,29.74,WNW,296,3.0,11.0,94,0.00,,CLR,0.00,VWS V14.01,2013-03-25 08:35:00,
2013-03-25 04:40:00,68.8,66.7,29.75,West,276,3.0,11.0,93,0.00,,CLR,0.00,VWS V14.01,2013-03-25 08:40:00,
2013-03-25 04:45:00,68.6,66.5,29.74,West,281,6.0,11.0,93,0.00,,CLR,0.00,VWS V14.01,2013-03-25 08:45:00,
2013-03-25 04:50:00,68.5,66.4,29.74,NNW,327,2.0,11.0,93,0.00,,CLR,0.00,VWS V14.01,2013-03-25 08:50:00,
2013-03-25 04:55:00,68.3,66.2,29.74,NW,305,4.0,11.0,93,0.00,,CLR,0.00,VWS V14.01,2013-03-25 08:55:00,
2013-03-25 05:00:00,68.1,66.0,29.74,West,270,3.0,9.0,93,0.00,,CLR,0.00,VWS V14.01,2013-03-25 09:00:00,
2013-03-25 05:05:00,68.0,65.6,29.74,West,272,5.0,9.0,92,0.00,,CLR,0.00,VWS V14.01,2013-03-25 09:05:00,
2013-03-25 05:10:00,67.9,65.5,29.75,West,259,5.0,9.0,92,0.00,,CLR,0.00,VWS V14.01,2013-03-25 09:10:00,
2013-03-25 05:15:00,67.7,65.3,29.75,West,270,5.0,9.0,92,0.00,,CLR,0.00,VWS V14.01,2013-03-25 09:15:00,
2013-03-25 05:20:00,67.6,65.2,29.75,West,273,3.0,9.0,92,0.00,,CLR,0.00,VWS V14.01,2013-03-25 09:20:00,
2013-03-25 05:25:00,67.5,65.4,29.75,West,264,3.0,9.0,93,0.00,,CLR,0.00,VWS V14.01,2013-03-25 09:25:00,
2013-03-25 05:30:00,67.4,65.0,29.76,West,263,2.0,9.0,92,0.00,,CLR,0.00,VWS V14.01,2013-03-25 09:30:00,
2013-03-25 05:35:00,67.3,65.2,29.76,WSW,250,4.0,9.0,93,0.00,,CLR,0.00,VWS V14.01,2013-03-25 09:35:00,
2013-03-25 05:40:00,67.2,64.8,29.75,West,267,2.0,9.0,92,0.00,,CLR,0.00,VWS V14.01,2013-03-25 09:40:00,
2013-03-25 05:45:00,67.1,64.7,29.76,West,277,1.0,9.0,92,0.00,,CLR,0.00,VWS V14.01,2013-03-25 09:45:00,
2013-03-25 05:50:00,67.0,64.3,29.76,WSW,256,2.0,9.0,91,0.00,,CLR,0.00,VWS V14.01,2013-03-25 09:50:00,
2013-03-25 05:55:00,66.8,64.1,29.76,West,270,3.0,9.0,91,0.00,,CLR,0.00,VWS V14.01,2013-03-25 09:55:00,
2013-03-25 06:00:00,66.7,64.0,29.76,West,273,2.0,5.0,91,0.00,,CLR,0.00,VWS V14.01,2013-03-25 10:00:00,
2013-03-25 06:05:00,66.6,63.9,29.76,WNW,288,4.0,6.0,91,0.00,,CLR,0.00,VWS V14.01,2013-03-25 10:05:00,
2013-03-25 06:10:00,66.4,63.7,29.76,West,265,0.0,6.0,91,0.00,,CLR,0.00,VWS V14.01,2013-03-25 10:10:00,
2013-03-25 06:15:00,66.3,63.9,29.76,West,269,0.0,6.0,92,0.00,,CLR,0.00,VWS V14.01,2013-03-25 10:15:00,
2013-03-25 06:20:00,66.2,63.5,29.76,West,272,3.0,6.0,91,0.00,,CLR,0.00,VWS V14.01,2013-03-25 10:20:00,
2013-03-25 06:25:00,66.1,63.4,29.76,West,271,1.0,6.0,91,0.00,,CLR,0.00,VWS V14.01,2013-03-25 10:25:00,
2013-03-25 06:30:00,66.0,63.3,29.77,WNW,290,2.0,6.0,91,0.00,,CLR,0.00,VWS V14.01,2013-03-25 10:30:00,
2013-03-25 06:35:00,65.9,63.5,29.77,WNW,284,4.0,6.0,92,0.00,,CLR,0.00,VWS V14.01,2013-03-25 10:35:00,
2013-03-25 06:40:00,65.8,63.1,29.78,WNW,294,5.0,6.0,91,0.00,,CLR,0.00,VWS V14.01,2013-03-25 10:40:00,
2013-03-25 06:45:00,65.7,63.0,29.77,West,259,2.0,6.0,91,0.00,,CLR,0.00,VWS V14.01,2013-03-25 10:45:00,
2013-03-25 06:50:00,65.5,62.8,29.78,West,272,3.0,7.0,91,0.00,,CLR,0.00,VWS V14.01,2013-03-25 10:50:00,
2013-03-25 06:55:00,65.3,62.6,29.78,NW,313,4.0,7.0,91,0.00,,CLR,0.00,VWS V14.01,2013-03-25 10:55:00,
2013-03-25 07:00:00,65.2,62.5,29.78,WNW,290,5.0,6.0,91,0.00,,CLR,0.00,VWS V14.01,2013-03-25 11:00:00,
2013-03-25 07:05:00,65.0,62.3,29.78,NW,308,2.0,6.0,91,0.00,,CLR,0.00,VWS V14.01,2013-03-25 11:05:00,
2013-03-25 07:10:00,64.9,62.2,29.79,WNW,289,1.0,6.0,91,0.00,,CLR,0.00,VWS V14.01,2013-03-25 11:10:00,
2013-03-25 07:15:00,64.8,62.1,29.79,NW,311,1.0,8.0,91,0.00,,CLR,0.00,VWS V14.01,2013-03-25 11:15:00,
2013-03-25 07:20:00,64.7,62.3,29.80,WNW,303,6.0,9.0,92,0.00,,CLR,0.00,VWS V14.01,2013-03-25 11:20:00,
2013-03-25 07:25:00,64.6,62.2,29.79,WNW,301,7.0,11.0,92,0.00,,CLR,0.00,VWS V14.01,2013-03-25 11:25:00,
2013-03-25 07:30:00,64.4,61.7,29.80,WNW,303,5.0,11.0,91,0.00,,CLR,0.00,VWS V14.01,2013-03-25 11:30:00,
2013-03-25 07:35:00,64.3,61.6,29.80,WNW,300,8.0,12.0,91,0.00,,CLR,0.00,VWS V14.01,2013-03-25 11:35:00,
2013-03-25 07:40:00,64.2,61.5,29.80,WNW,291,5.0,12.0,91,0.00,,CLR,0.00,VWS V14.01,2013-03-25 11:40:00,
2013-03-25 07:45:00,64.0,61.3,29.81,NW,305,5.0,12.0,91,0.00,,CLR,0.00,VWS V14.01,2013-03-25 11:45:00,
2013-03-25 07:50:00,64.0,61.3,29.80,NW,321,8.0,12.0,91,0.00,,CLR,0.00,VWS V14.01,2013-03-25 11:50:00,
2013-03-25 07:55:00,63.9,61.2,29.81,WNW,295,5.0,12.0,91,0.00,,CLR,0.00,VWS V14.01,2013-03-25 11:55:00,
2013-03-25 08:00:00,63.9,61.2,29.81,WNW,290,4.0,10.0,91,0.00,,,0.00,VWS V14.01,2013-03-25 12:00:00,
2013-03-25 08:05:00,63.7,61.0,29.81,NW,314,7.0,10.0,91,0.00,,,0.00,VWS V14.01,2013-03-25 12:05:00,
2013-03-25 08:10:00,63.8,61.1,29.81,NW,309,5.0,10.0,91,0.00,,,0.00,VWS V14.01,2013-03-25 12:10:00,
2013-03-25 08:15:00,63.8,61.1,29.81,WNW,301,4.0,10.0,91,0.00,,,0.00,VWS V14.01,2013-03-25 12:15:00,
2013-03-25 08:20:00,63.9,61.2,29.82,NW,307,3.0,10.0,91,0.00,,,0.00,VWS V14.01,2013-03-25 12:20:00,
2013-03-25 08:25:00,64.0,61.3,29.82,West,281,1.0,10.0,91,0.00,,,0.00,VWS V14.01,2013-03-25 12:25:00,
2013-03-25 08:30:00,64.1,61.4,29.82,NW,312,6.0,10.0,91,0.01,,,0.01,VWS V14.01,2013-03-25 12:30:00,
2013-03-25 08:35:00,64.2,61.5,29.82,WNW,285,3.0,12.0,91,0.01,,,0.01,VWS V14.01,2013-03-25 12:35:00,
2013-03-25 08:40:00,64.3,61.6,29.83,NW,315,4.0,12.0,91,0.01,,,0.01,VWS V14.01,2013-03-25 12:40:00,
2013-03-25 08:46:00,64.4,61.7,29.83,WNW,293,4.0,12.0,91,0.01,,,0.01,VWS V14.01,2013-03-25 12:46:00,
2013-03-25 08:51:00,64.6,61.6,29.83,NW,309,6.0,12.0,90,0.01,,,0.01,VWS V14.01,2013-03-25 12:51:00,
2013-03-25 08:56:00,64.8,61.8,29.83,NW,307,6.0,12.0,90,0.01,,,0.01,VWS V14.01,2013-03-25 12:56:00,
2013-03-25 09:01:00,65.0,61.7,29.84,NNW,327,4.0,9.0,89,0.01,,CLR,0.01,VWS V14.01,2013-03-25 13:01:00,
2013-03-25 09:06:00,65.2,61.9,29.84,NW,318,10.0,12.0,89,0.01,,CLR,0.01,VWS V14.01,2013-03-25 13:06:00,
2013-03-25 09:11:00,65.4,61.8,29.84,NW,311,12.0,13.0,88,0.01,,CLR,0.01,VWS V14.01,2013-03-25 13:11:00,
2013-03-25 09:16:00,65.4,61.8,29.84,NW,316,5.0,15.0,88,0.01,,CLR,0.01,VWS V14.01,2013-03-25 13:16:00,
2013-03-25 09:21:00,65.6,62.0,29.85,NW,311,3.0,15.0,88,0.01,,CLR,0.01,VWS V14.01,2013-03-25 13:21:00,
2013-03-25 09:26:00,65.8,61.8,29.85,WNW,302,5.0,15.0,87,0.01,,CLR,0.01,VWS V14.01,2013-03-25 13:26:00,
2013-03-25 09:31:00,66.0,61.7,29.86,NW,319,7.0,15.0,86,0.01,,CLR,0.01,VWS V14.01,2013-03-25 13:31:00,
2013-03-25 09:36:00,66.2,61.6,29.87,West,264,4.0,15.0,85,0.01,,CLR,0.01,VWS V14.01,2013-03-25 13:36:00,
2013-03-25 09:41:00,66.5,61.9,29.86,WNW,300,3.0,15.0,85,0.01,,CLR,0.01,VWS V14.01,2013-03-25 13:41:00,
2013-03-25 09:46:00,66.7,62.0,29.87,NW,315,8.0,17.0,85,0.01,,CLR,0.01,VWS V14.01,2013-03-25 13:46:00,
2013-03-25 09:51:00,67.0,61.7,29.88,WNW,286,6.0,17.0,83,0.01,,CLR,0.01,VWS V14.01,2013-03-25 13:51:00,
2013-03-25 09:56:00,67.3,61.3,29.87,WNW,301,10.0,17.0,81,0.01,,CLR,0.01,VWS V14.01,2013-03-25 13:56:00,
2013-03-25 10:01:00,67.5,61.1,29.87,NW,320,7.0,12.0,80,0.00,,FEW017,0.01,VWS V14.01,2013-03-25 14:01:00,
2013-03-25 10:07:00,67.7,61.7,29.87,WNW,301,5.0,12.0,81,0.00,,FEW017,0.01,VWS V14.01,2013-03-25 14:07:00,
2013-03-25 10:12:00,67.9,61.2,29.87,NW,311,9.0,14.0,79,0.00,,FEW017,0.01,VWS V14.01,2013-03-25 14:12:00,
2013-03-25 10:17:00,68.0,61.2,29.88,NW,308,7.0,14.0,79,0.00,,FEW017,0.01,VWS V14.01,2013-03-25 14:17:00,
2013-03-25 10:22:00,68.3,61.9,29.87,WNW,291,7.0,14.0,80,0.00,,FEW017,0.01,VWS V14.01,2013-03-25 14:22:00,
2013-03-25 10:27:00,68.7,61.6,29.89,NNW,338,3.0,14.0,78,0.00,,FEW017,0.01,VWS V14.01,2013-03-25 14:27:00,
2013-03-25 10:32:00,69.0,61.9,29.88,NW,325,5.0,14.0,78,0.00,,FEW017,0.01,VWS V14.01,2013-03-25 14:32:00,
2013-03-25 10:37:00,69.5,61.6,29.89,WNW,289,9.0,14.0,76,0.00,,FEW017,0.01,VWS V14.01,2013-03-25 14:37:00,
2013-03-25 10:42:00,69.7,62.2,29.89,WNW,302,11.0,14.0,77,0.00,,FEW017,0.01,VWS V14.01,2013-03-25 14:42:00,
2013-03-25 10:47:00,69.9,62.0,29.89,NW,311,9.0,14.0,76,0.00,,FEW017,0.01,VWS V14.01,2013-03-25 14:47:00,
2013-03-25 10:52:00,69.9,61.2,29.89,WNW,295,6.0,15.0,74,0.00,,FEW017,0.01,VWS V14.01,2013-03-25 14:52:00,
2013-03-25 10:57:00,70.0,61.0,29.90,NW,316,5.0,15.0,73,0.00,,FEW017,0.01,VWS V14.01,2013-03-25 14:57:00,
2013-03-25 11:02:00,70.4,61.3,29.90,NW,311,4.0,13.0,73,0.00,,SCT023,0.01,VWS V14.01,2013-03-25 15:02:00,
2013-03-25 11:07:00,70.6,60.8,29.90,WNW,294,6.0,13.0,71,0.00,,SCT023,0.01,VWS V14.01,2013-03-25 15:07:00,
2013-03-25 11:12:00,70.7,61.6,29.90,NW,322,12.0,13.0,73,0.00,,SCT023,0.01,VWS V14.01,2013-03-25 15:12:00,
2013-03-25 11:17:00,70.8,60.1,29.91,West,266,13.0,14.0,69,0.00,,SCT023,0.01,VWS V14.01,2013-03-25 15:17:00,
2013-03-25 11:22:00,70.8,59.3,29.90,West,274,4.0,15.0,67,0.00,,SCT023,0.01,VWS V14.01,2013-03-25 15:22:00,
2013-03-25 11:27:00,70.8,57.6,29.90,NW,305,6.0,15.0,63,0.00,,SCT023,0.01,VWS V14.01,2013-03-25 15:27:00,
2013-03-25 11:32:00,70.6,57.8,29.91,NW,317,6.0,15.0,64,0.00,,SCT023,0.01,VWS V14.01,2013-03-25 15:32:00,
2013-03-25 11:37:00,70.7,58.4,29.90,WNW,296,0.0,15.0,65,0.00,,SCT023,0.01,VWS V14.01,2013-03-25 15:37:00,
2013-03-25 11:42:00,71.1,58.8,29.90,NW,312,6.0,15.0,65,0.00,,SCT023,0.01,VWS V14.01,2013-03-25 15:42:00,
2013-03-25 11:47:00,71.6,58.8,29.91,WNW,285,6.0,15.0,64,0.00,,SCT023,0.01,VWS V14.01,2013-03-25 15:47:00,
2013-03-25 11:52:00,72.0,59.2,29.92,NW,326,5.0,15.0,64,0.00,,SCT023,0.01,VWS V14.01,2013-03-25 15:52:00,
2013-03-25 11:57:00,72.3,56.7,29.91,NW,311,5.0,15.0,58,0.00,,SCT023,0.01,VWS V14.01,2013-03-25 15:57:00,
2013-03-25 12:02:00,72.2,57.6,29.91,WNW,303,8.0,12.0,60,0.00,,SCT023,0.01,VWS V14.01,2013-03-25 16:02:00,
2013-03-25 12:07:00,72.3,56.2,29.92,WNW,282,4.0,12.0,57,0.00,,CLR,0.01,VWS V14.01,2013-03-25 16:07:00,
2013-03-25 12:12:00,72.5,56.4,29.91,WNW,299,10.0,13.0,57,0.00,,CLR,0.01,VWS V14.01,2013-03-25 16:12:00,
2013-03-25 12:17:00,72.8,53.6,29.91,NW,315,4.0,13.0,51,0.00,,CLR,0.01,VWS V14.01,2013-03-25 16:17:00,
2013-03-25 12:23:00,73.0,54.4,29.92,WNW,292,7.0,13.0,52,0.00,,CLR,0.01,VWS V14.01,2013-03-25 16:23:00,
2013-03-25 12:28:00,73.0,51.6,29.93,WNW,291,9.0,15.0,47,0.00,,CLR,0.01,VWS V14.01,2013-03-25 16:28:00,
2013-03-25 12:33:00,73.0,49.2,29.92,WNW,302,6.0,17.0,43,0.00,,CLR,0.01,VWS V14.01,2013-03-25 16:33:00,
2013-03-25 12:38:00,73.0,47.9,29.92,NW,304,7.0,18.0,41,0.00,,CLR,0.01,VWS V14.01,2013-03-25 16:38:00,
2013-03-25 12:43:00,73.3,49.5,29.92,West,276,9.0,18.0,43,0.00,,CLR,0.01,VWS V14.01,2013-03-25 16:43:00,
2013-03-25 12:48:00,73.7,47.9,29.92,WNW,286,8.0,18.0,40,0.00,,CLR,0.01,VWS V14.01,2013-03-25 16:48:00,
2013-03-25 12:53:00,73.7,45.8,29.92,NW,312,8.0,18.0,37,0.00,,CLR,0.01,VWS V14.01,2013-03-25 16:53:00,
2013-03-25 12:58:00,73.8,48.0,29.92,WNW,302,10.0,18.0,40,0.00,,CLR,0.01,VWS V14.01,2013-03-25 16:58:00,
2013-03-25 13:03:00,74.1,46.9,29.92,WNW,303,10.0,14.0,38,0.00,,CLR,0.01,VWS V14.01,2013-03-25 17:03:00,
2013-03-25 13:08:00,74.2,46.3,29.92,NW,318,7.0,14.0,37,0.00,,CLR,0.01,VWS V14.01,2013-03-25 17:08:00,
2013-03-25 13:13:00,74.1,48.3,29.91,NW,306,4.0,14.0,40,0.00,,CLR,0.01,VWS V14.01,2013-03-25 17:13:00,
2013-03-25 13:18:00,74.2,48.3,29.91,West,270,6.0,14.0,40,0.00,,CLR,0.01,VWS V14.01,2013-03-25 17:18:00,
2013-03-25 13:23:00,74.4,46.5,29.91,NNW,329,4.0,16.0,37,0.00,,CLR,0.01,VWS V14.01,2013-03-25 17:23:00,
2013-03-25 13:28:00,74.2,45.6,29.90,WNW,300,6.0,16.0,36,0.00,,CLR,0.01,VWS V14.01,2013-03-25 17:28:00,
2013-03-25 13:33:00,74.1,45.5,29.90,WNW,298,3.0,16.0,36,0.00,,CLR,0.01,VWS V14.01,2013-03-25 17:33:00,
2013-03-25 13:38:00,73.9,46.0,29.89,WNW,285,8.0,16.0,37,0.00,,CLR,0.01,VWS V14.01,2013-03-25 17:38:00,
2013-03-25 13:43:00,73.9,46.0,29.90,NNW,329,3.0,16.0,37,0.00,,CLR,0.01,VWS V14.01,2013-03-25 17:43:00,
2013-03-25 13:48:00,74.2,47.0,29.89,NW,307,3.0,16.0,38,0.00,,CLR,0.01,VWS V14.01,2013-03-25 17:48:00,
2013-03-25 13:53:00,74.5,48.6,29.89,NNW,346,3.0,16.0,40,0.00,,CLR,0.01,VWS V14.01,2013-03-25 17:53:00,
2013-03-25 13:58:00,74.7,46.0,29.89,NNW,343,5.0,16.0,36,0.00,,CLR,0.01,VWS V14.01,2013-03-25 17:58:00,
2013-03-25 14:03:00,74.7,46.7,29.89,NNW,331,6.0,13.0,37,0.00,,CLR,0.01,VWS V14.01,2013-03-25 18:03:00,
2013-03-25 14:08:00,74.6,46.6,29.88,WNW,291,5.0,14.0,37,0.00,,CLR,0.01,VWS V14.01,2013-03-25 18:08:00,
2013-03-25 14:13:00,74.6,46.6,29.88,WNW,285,4.0,14.0,37,0.00,,CLR,0.01,VWS V14.01,2013-03-25 18:13:00,
2013-03-25 14:18:00,74.8,48.9,29.88,NW,323,7.0,14.0,40,0.00,,CLR,0.01,VWS V14.01,2013-03-25 18:18:00,
2013-03-25 14:23:00,75.1,47.1,29.88,WNW,303,8.0,14.0,37,0.00,,CLR,0.01,VWS V14.01,2013-03-25 18:23:00,
2013-03-25 14:28:00,75.2,47.2,29.87,West,263,9.0,14.0,37,0.00,,CLR,0.01,VWS V14.01,2013-03-25 18:28:00,
2013-03-25 14:33:00,75.3,45.8,29.87,WNW,292,13.0,16.0,35,0.00,,CLR,0.01,VWS V14.01,2013-03-25 18:33:00,
2013-03-25 14:38:00,75.0,44.8,29.87,West,266,11.0,16.0,34,0.00,,CLR,0.01,VWS V14.01,2013-03-25 18:38:00,
2013-03-25 14:43:00,75.1,46.3,29.88,WSW,256,12.0,16.0,36,0.00,,CLR,0.01,VWS V14.01,2013-03-25 18:43:00,
2013-03-25 14:48:00,75.3,45.0,29.88,West,276,2.0,17.0,34,0.00,,CLR,0.01,VWS V14.01,2013-03-25 18:48:00,
2013-03-25 14:53:00,75.2,45.7,29.87,NW,307,5.0,17.0,35,0.00,,CLR,0.01,VWS V14.01,2013-03-25 18:53:00,
2013-03-25 14:58:00,75.4,47.3,29.88,NW,318,4.0,17.0,37,0.00,,CLR,0.01,VWS V14.01,2013-03-25 18:58:00,
2013-03-25 15:03:00,75.5,48.1,29.87,NW,312,9.0,15.0,38,0.00,,CLR,0.01,VWS V14.01,2013-03-25 19:03:00,
2013-03-25 15:08:00,75.5,46.7,29.87,NW,315,2.0,17.0,36,0.00,,CLR,0.01,VWS V14.01,2013-03-25 19:08:00,
2013-03-25 15:13:00,75.4,47.3,29.87,NW,318,7.0,17.0,37,0.00,,CLR,0.01,VWS V14.01,2013-03-25 19:13:00,
2013-03-25 15:18:00,75.7,47.6,29.87,NW,305,10.0,17.0,37,0.00,,CLR,0.01,VWS V14.01,2013-03-25 19:18:00,
2013-03-25 15:23:00,76.0,47.9,29.87,WNW,294,7.0,17.0,37,0.00,,CLR,0.01,VWS V14.01,2013-03-25 19:23:00,
2013-03-25 15:28:00,76.2,48.8,29.86,NW,310,5.0,17.0,38,0.00,,CLR,0.01,VWS V14.01,2013-03-25 19:28:00,
2013-03-25 15:33:00,76.2,47.3,29.87,NW,318,8.0,17.0,36,0.00,,CLR,0.01,VWS V14.01,2013-03-25 19:33:00,
2013-03-25 15:38:00,76.3,46.7,29.87,WNW,293,8.0,17.0,35,0.00,,CLR,0.01,VWS V14.01,2013-03-25 19:38:00,
2013-03-25 15:43:00,76.7,45.5,29.88,WNW,295,6.0,17.0,33,0.00,,CLR,0.01,VWS V14.01,2013-03-25 19:43:00,
2013-03-25 15:48:00,76.6,46.2,29.87,West,264,11.0,18.0,34,0.00,,CLR,0.01,VWS V14.01,2013-03-25 19:48:00,
2013-03-25 15:53:00,76.5,43.7,29.87,WNW,287,13.0,19.0,31,0.00,,CLR,0.01,VWS V14.01,2013-03-25 19:53:00,
2013-03-25 15:58:00,76.6,44.6,29.87,NW,312,9.0,19.0,32,0.00,,CLR,0.01,VWS V14.01,2013-03-25 19:58:00,
2013-03-25 16:03:00,76.6,43.7,29.88,WNW,297,6.0,14.0,31,0.00,,CLR,0.01,VWS V14.01,2013-03-25 20:03:00,
2013-03-25 16:09:00,76.7,45.5,29.87,NW,305,7.0,14.0,33,0.00,,CLR,0.01,VWS V14.01,2013-03-25 20:09:00,
2013-03-25 16:13:00,76.5,45.3,29.87,NW,306,9.0,17.0,33,0.00,,CLR,0.01,VWS V14.01,2013-03-25 20:13:00,
2013-03-25 16:19:00,76.4,46.0,29.88,NW,315,9.0,17.0,34,0.00,,CLR,0.01,VWS V14.01,2013-03-25 20:19:00,
2013-03-25 16:24:00,76.6,45.4,29.87,NW,309,5.0,17.0,33,0.00,,CLR,0.01,VWS V14.01,2013-03-25 20:24:00,
2013-03-25 16:29:00,76.2,44.2,29.87,West,259,6.0,17.0,32,0.00,,CLR,0.01,VWS V14.01,2013-03-25 20:29:00,
2013-03-25 16:34:00,76.0,43.2,29.87,WNW,296,6.0,17.0,31,0.00,,CLR,0.01,VWS V14.01,2013-03-25 20:34:00,
2013-03-25 16:39:00,76.1,44.9,29.88,WSW,258,6.0,17.0,33,0.00,,CLR,0.01,VWS V14.01,2013-03-25 20:39:00,
2013-03-25 16:44:00,76.3,45.9,29.87,WNW,282,9.0,17.0,34,0.00,,CLR,0.01,VWS V14.01,2013-03-25 20:44:00,
2013-03-25 16:49:00,76.5,45.3,29.89,WNW,292,11.0,17.0,33,0.00,,CLR,0.01,VWS V14.01,2013-03-25 20:49:00,
2013-03-25 16:54:00,76.4,43.6,29.88,WNW,290,9.0,17.0,31,0.00,,CLR,0.01,VWS V14.01,2013-03-25 20:54:00,
2013-03-25 16:59:00,76.5,43.7,29.87,WSW,250,8.0,17.0,31,0.00,,CLR,0.01,VWS V14.01,2013-03-25 20:59:00,
2013-03-25 17:04:00,76.5,44.5,29.88,West,270,6.0,14.0,32,0.00,,CLR,0.01,VWS V14.01,2013-03-25 21:04:00,
2013-03-25 17:09:00,76.5,43.7,29.88,NW,306,6.0,14.0,31,0.00,,CLR,0.01,VWS V14.01,2013-03-25 21:09:00,
2013-03-25 17:14:00,76.4,43.6,29.88,WNW,285,8.0,14.0,31,0.00,,CLR,0.01,VWS V14.01,2013-03-25 21:14:00,
2013-03-25 17:19:00,76.2,43.4,29.88,WNW,290,5.0,14.0,31,0.00,,CLR,0.01,VWS V14.01,2013-03-25 21:19:00,
2013-03-25 17:24:00,76.1,43.3,29.88,NW,309,8.0,14.0,31,0.00,,CLR,0.01,VWS V14.01,2013-03-25 21:24:00,
2013-03-25 17:29:00,76.1,44.9,29.88,WNW,298,5.0,14.0,33,0.00,,CLR,0.01,VWS V14.01,2013-03-25 21:29:00,
2013-03-25 17:34:00,76.2,44.2,29.89,West,273,6.0,14.0,32,0.00,,CLR,0.01,VWS V14.01,2013-03-25 21:34:00,
2013-03-25 17:39:00,76.1,42.5,29.88,WNW,299,4.0,15.0,30,0.00,,CLR,0.01,VWS V14.01,2013-03-25 21:39:00,
2013-03-25 17:44:00,76.0,43.2,29.89,WNW,302,5.0,15.0,31,0.00,,CLR,0.01,VWS V14.01,2013-03-25 21:44:00,
2013-03-25 17:49:00,75.8,43.0,29.88,WNW,289,5.0,15.0,31,0.00,,CLR,0.01,VWS V14.01,2013-03-25 21:49:00,
2013-03-25 17:54:00,75.5,41.9,29.89,NW,304,4.0,15.0,30,0.00,,CLR,0.01,VWS V14.01,2013-03-25 21:54:00,
2013-03-25 17:59:00,75.3,42.6,29.89,West,277,5.0,15.0,31,0.00,,CLR,0.01,VWS V14.01,2013-03-25 21:59:00,
2013-03-25 18:04:00,75.3,42.6,29.88,WNW,298,4.0,16.0,31,0.00,,FEW100,0.01,VWS V14.01,2013-03-25 22:04:00,
2013-03-25 18:09:00,75.1,42.4,29.89,West,261,6.0,16.0,31,0.00,,FEW100,0.01,VWS V14.01,2013-03-25 22:09:00,
2013-03-25 18:14:00,74.9,42.3,29.90,WNW,287,3.0,16.0,31,0.00,,FEW100,0.01,VWS V14.01,2013-03-25 22:14:00,
2013-03-25 18:19:00,74.3,43.4,29.89,NW,308,8.0,16.0,33,0.00,,FEW100,0.01,VWS V14.01,2013-03-25 22:19:00,
2013-03-25 18:24:00,74.1,44.0,29.89,NW,315,3.0,16.0,34,0.00,,FEW100,0.01,VWS V14.01,2013-03-25 22:24:00,
2013-03-25 18:29:00,73.9,42.2,29.90,NW,311,9.0,16.0,32,0.00,,FEW100,0.01,VWS V14.01,2013-03-25 22:29:00,
2013-03-25 18:34:00,73.5,41.9,29.89,WNW,301,7.0,16.0,32,0.00,,FEW100,0.01,VWS V14.01,2013-03-25 22:34:00,
2013-03-25 18:39:00,73.1,41.5,29.89,NW,305,0.0,16.0,32,0.00,,FEW100,0.01,VWS V14.01,2013-03-25 22:39:00,
2013-03-25 18:44:00,72.8,42.8,29.90,WNW,299,1.0,16.0,34,0.00,,FEW100,0.01,VWS V14.01,2013-03-25 22:44:00,
2013-03-25 18:49:00,72.6,42.7,29.90,WNW,303,4.0,16.0,34,0.00,,FEW100,0.01,VWS V14.01,2013-03-25 22:49:00,
2013-03-25 18:54:00,72.5,43.3,29.91,WNW,293,0.0,16.0,35,0.00,,FEW100,0.01,VWS V14.01,2013-03-25 22:54:00,
2013-03-25 18:59:00,72.4,42.5,29.90,WNW,296,0.0,16.0,34,0.00,,FEW100,0.01,VWS V14.01,2013-03-25 22:59:00,
2013-03-25 19:04:00,72.4,45.4,29.91,West,268,0.0,5.0,38,0.00,,FEW095,0.01,VWS V14.01,2013-03-25 23:04:00,
2013-03-25 19:09:00,72.3,44.6,29.91,WNW,298,1.0,5.0,37,0.00,,FEW095,0.01,VWS V14.01,2013-03-25 23:09:00,
2013-03-25 19:14:00,72.2,43.8,29.92,WNW,295,4.0,6.0,36,0.00,,FEW095,0.01,VWS V14.01,2013-03-25 23:14:00,
2013-03-25 19:19:00,72.0,42.9,29.92,NW,314,0.0,6.0,35,0.00,,FEW095,0.01,VWS V14.01,2013-03-25 23:19:00,
2013-03-25 19:24:00,71.9,43.5,29.92,NW,310,0.0,6.0,36,0.00,,FEW095,0.01,VWS V14.01,2013-03-25 23:24:00,
2013-03-25 19:29:00,71.8,42.0,29.92,NW,304,0.0,6.0,34,0.00,,FEW095,0.01,VWS V14.01,2013-03-25 23:29:00,
2013-03-25 19:34:00,71.6,41.8,29.92,WNW,295,0.0,6.0,34,0.00,,FEW095,0.01,VWS V14.01,2013-03-25 23:34:00,
2013-03-25 19:39:00,71.5,43.2,29.93,West,267,3.0,6.0,36,0.00,,FEW095,0.01,VWS V14.01,2013-03-25 23:39:00,
2013-03-25 19:44:00,71.3,43.7,29.92,West,273,0.0,6.0,37,0.00,,FEW095,0.01,VWS V14.01,2013-03-25 23:44:00,
2013-03-25 19:49:00,71.1,43.5,29.92,WSW,245,1.0,6.0,37,0.00,,FEW095,0.01,VWS V14.01,2013-03-25 23:49:00,
2013-03-25 19:54:00,70.9,43.4,29.93,WSW,257,2.0,6.0,37,0.00,,FEW095,0.01,VWS V14.01,2013-03-25 23:54:00,
2013-03-25 19:59:00,70.6,44.5,29.93,West,266,4.0,6.0,39,0.00,,FEW095,0.01,VWS V14.01,2013-03-25 23:59:00,
2013-03-25 20:04:00,70.3,44.2,29.94,WSW,251,3.0,7.0,39,0.00,,CLR,0.01,VWS V14.01,2013-03-26 00:04:00,
2013-03-25 20:09:00,69.9,44.5,29.94,SW,234,0.0,7.0,40,0.00,,CLR,0.01,VWS V14.01,2013-03-26 00:09:00,
2013-03-25 20:14:00,69.5,43.5,29.94,WNW,282,2.0,7.0,39,0.00,,CLR,0.01,VWS V14.01,2013-03-26 00:14:00,
2013-03-25 20:19:00,69.2,43.2,29.94,WNW,283,3.0,7.0,39,0.00,,CLR,0.01,VWS V14.01,2013-03-26 00:19:00,
2013-03-25 20:24:00,68.8,43.5,29.94,West,269,4.0,7.0,40,0.00,,CLR,0.01,VWS V14.01,2013-03-26 00:24:00,
2013-03-25 20:29:00,68.3,43.1,29.95,WSW,255,5.0,7.0,40,0.00,,CLR,0.01,VWS V14.01,2013-03-26 00:29:00,
2013-03-25 20:34:00,67.9,43.4,29.95,WNW,290,2.0,7.0,41,0.00,,CLR,0.01,VWS V14.01,2013-03-26 00:34:00,
2013-03-25 20:39:00,67.4,42.9,29.95,West,271,5.0,8.0,41,0.00,,CLR,0.01,VWS V14.01,2013-03-26 00:39:00,
2013-03-25 20:44:00,67.0,43.2,29.95,WNW,284,4.0,8.0,42,0.00,,CLR,0.01,VWS V14.01,2013-03-26 00:44:00,
2013-03-25 20:49:00,66.6,42.8,29.96,West,279,6.0,8.0,42,0.00,,CLR,0.01,VWS V14.01,2013-03-26 00:49:00,
2013-03-25 20:54:00,66.3,43.2,29.96,WSW,257,5.0,8.0,43,0.00,,CLR,0.01,VWS V14.01,2013-03-26 00:54:00,
2013-03-25 20:59:00,66.0,42.9,29.95,WNW,294,5.0,8.0,43,0.00,,CLR,0.01,VWS V14.01,2013-03-26 00:59:00,
2013-03-25 21:04:00,65.5,42.4,29.96,WNW,286,3.0,5.0,43,0.00,,CLR,0.01,VWS V14.01,2013-03-26 01:04:00,
2013-03-25 21:09:00,65.3,42.2,29.96,West,281,2.0,5.0,43,0.00,,CLR,0.01,VWS V14.01,2013-03-26 01:09:00,
2013-03-25 21:14:00,65.0,42.6,29.97,West,260,1.0,5.0,44,0.00,,CLR,0.01,VWS V14.01,2013-03-26 01:14:00,
2013-03-25 21:19:00,64.8,42.4,29.97,West,261,0.0,5.0,44,0.00,,CLR,0.01,VWS V14.01,2013-03-26 01:19:00,
2013-03-25 21:24:00,64.5,43.3,29.97,West,267,0.0,5.0,46,0.00,,CLR,0.01,VWS V14.01,2013-03-26 01:24:00,
2013-03-25 21:29:00,64.1,42.3,29.96,West,281,0.0,5.0,45,0.00,,CLR,0.01,VWS V14.01,2013-03-26 01:29:00,
2013-03-25 21:34:00,63.9,42.2,29.97,WNW,289,0.0,5.0,45,0.00,,CLR,0.01,VWS V14.01,2013-03-26 01:34:00,
2013-03-25 21:39:00,63.8,42.6,29.97,West,262,1.0,5.0,46,0.00,,CLR,0.01,VWS V14.01,2013-03-26 01:39:00,
2013-03-25 21:44:00,63.6,40.7,29.98,WNW,284,2.0,6.0,43,0.00,,CLR,0.01,VWS V14.01,2013-03-26 01:44:00,
2013-03-25 21:49:00,63.5,40.6,29.97,WNW,286,3.0,6.0,43,0.00,,CLR,0.01,VWS V14.01,2013-03-26 01:49:00,
2013-03-25 21:54:00,63.4,41.1,29.98,West,260,2.0,6.0,44,0.00,,CLR,0.01,VWS V14.01,2013-03-26 01:54:00,
2013-03-25 21:59:00,63.2,41.5,29.98,WSW,256,4.0,6.0,45,0.00,,CLR,0.01,VWS V14.01,2013-03-26 01:59:00,
2013-03-25 22:04:00,63.0,41.3,29.99,West,267,2.0,5.0,45,0.00,,CLR,0.01,VWS V14.01,2013-03-26 02:04:00,
2013-03-25 22:09:00,62.8,41.2,29.99,West,261,4.0,6.0,45,0.00,,CLR,0.01,VWS V14.01,2013-03-26 02:09:00,
2013-03-25 22:14:00,62.4,40.2,29.99,WSW,248,0.0,6.0,44,0.00,,CLR,0.01,VWS V14.01,2013-03-26 02:14:00,
2013-03-25 22:19:00,62.0,39.9,30.00,West,275,5.0,7.0,44,0.00,,CLR,0.01,VWS V14.01,2013-03-26 02:19:00,
2013-03-25 22:24:00,61.6,39.5,30.01,WSW,251,4.0,7.0,44,0.00,,CLR,0.01,VWS V14.01,2013-03-26 02:24:00,
2013-03-25 22:29:00,61.3,39.2,30.00,West,270,1.0,7.0,44,0.00,,CLR,0.01,VWS V14.01,2013-03-26 02:29:00,
2013-03-25 22:34:00,60.9,38.9,30.01,WNW,288,3.0,8.0,44,0.00,,CLR,0.01,VWS V14.01,2013-03-26 02:34:00,
2013-03-25 22:39:00,60.6,39.2,30.01,West,274,6.0,8.0,45,0.00,,CLR,0.01,VWS V14.01,2013-03-26 02:39:00,
2013-03-25 22:44:00,60.3,38.9,30.02,West,274,4.0,10.0,45,0.00,,CLR,0.01,VWS V14.01,2013-03-26 02:44:00,
2013-03-25 22:49:00,60.0,39.2,30.01,WNW,293,6.0,10.0,46,0.00,,CLR,0.01,VWS V14.01,2013-03-26 02:49:00,
2013-03-25 22:54:00,59.7,38.9,30.01,WNW,288,6.0,10.0,46,0.00,,CLR,0.01,VWS V14.01,2013-03-26 02:54:00,
2013-03-25 22:59:00,59.4,39.2,30.03,WNW,284,7.0,10.0,47,0.00,,CLR,0.01,VWS V14.01,2013-03-26 02:59:00,
2013-03-25 23:04:00,59.2,39.5,30.02,WNW,299,2.0,7.0,48,0.00,,CLR,0.01,VWS V14.01,2013-03-26 03:04:00,
2013-03-25 23:09:00,59.0,39.4,30.02,WNW,284,4.0,7.0,48,0.00,,CLR,0.01,VWS V14.01,2013-03-26 03:09:00,
2013-03-25 23:14:00,58.9,39.8,30.03,West,263,5.0,7.0,49,0.00,,CLR,0.01,VWS V14.01,2013-03-26 03:14:00,
2013-03-25 23:19:00,58.7,40.1,30.03,West,277,3.0,7.0,50,0.00,,CLR,0.01,VWS V14.01,2013-03-26 03:19:00,
2013-03-25 23:24:00,58.6,40.0,30.02,West,263,2.0,7.0,50,0.00,,CLR,0.01,VWS V14.01,2013-03-26 03:24:00,
2013-03-25 23:29:00,58.4,39.8,30.02,West,281,1.0,7.0,50,0.00,,CLR,0.01,VWS V14.01,2013-03-26 03:29:00,
2013-03-25 23:34:00,58.1,40.1,30.02,WSW,256,2.0,8.0,51,0.00,,CLR,0.01,VWS V14.01,2013-03-26 03:34:00,
2013-03-25 23:39:00,57.7,40.2,30.03,WNW,298,4.0,10.0,52,0.00,,CLR,0.01,VWS V14.01,2013-03-26 03:39:00,
2013-03-25 23:44:00,57.4,40.4,30.02,WNW,290,4.0,10.0,53,0.00,,CLR,0.01,VWS V14.01,2013-03-26 03:44:00,
2013-03-25 23:49:00,57.2,40.2,30.03,WNW,282,2.0,10.0,53,0.00,,CLR,0.01,VWS V14.01,2013-03-26 03:49:00,
2013-03-25 23:54:00,57.0,40.5,30.02,WNW,285,7.0,11.0,54,0.00,,CLR,0.01,VWS V14.01,2013-03-26 03:54:00,
2013-03-25 23:59:00,56.8,41.3,30.02,West,276,6.0,11.0,56,0.00,,CLR,0.00,VWS V14.01,2013-03-26 03:59:00,